Time;durP1;ratioP1;P1;durP2;ratioP2;P2;SDS_P1;SDS_P2;PMS_P1;PMS_P2;Temp;Humidity;BMP_temperature;BMP_pressure;BME280_temperature;BME280_humidity;BME280_pressure;Samples;Min_cycle;Max_cycle;Signal;HPM_P1;HPM_P2
2023/07/20 00:01:03;;;;;;;4.00;2.60;;;21.40;99.90;;;;;;4957270;28;20389;-79
2023/07/20 00:03:29;;;;;;;2.92;2.17;;;21.30;99.90;;;;;;4994004;28;20475;-80
2023/07/20 00:05:55;;;;;;;3.50;2.50;;;21.20;99.90;;;;;;4982717;28;20487;-80
2023/07/20 00:08:20;;;;;;;2.80;2.50;;;21.10;99.90;;;;;;4976615;28;20435;-80
2023/07/20 00:10:46;;;;;;;2.83;2.50;;;21.00;99.90;;;;;;4958954;28;20396;-79
2023/07/20 00:13:11;;;;;;;3.50;2.90;;;21.00;99.90;;;;;;4975257;28;20476;-80
2023/07/20 00:15:37;;;;;;;3.45;2.40;;;21.00;99.90;;;;;;4974174;28;20766;-79
2023/07/20 00:18:04;;;;;;;3.10;2.70;;;21.10;99.90;;;;;;4956966;28;20388;-80
2023/07/20 00:20:30;;;;;;;5.65;3.10;;;21.20;99.90;;;;;;4973997;28;20408;-80
2023/07/20 00:22:57;;;;;;;4.65;2.90;;;21.20;99.90;;;;;;4975879;28;20386;-80
2023/07/20 00:25:23;;;;;;;3.47;2.88;;;21.20;99.90;;;;;;4975760;28;20402;-80
2023/07/20 00:27:49;;;;;;;3.47;2.80;;;21.10;99.90;;;;;;4993401;28;20395;-79
2023/07/20 00:30:15;;;;;;;3.90;2.80;;;21.00;99.90;;;;;;4992858;28;20780;-79
2023/07/20 00:32:41;;;;;;;4.70;2.85;;;20.90;99.90;;;;;;4974812;28;20406;-79
2023/07/20 00:35:07;;;;;;;3.70;2.60;;;20.90;99.90;;;;;;4982100;28;20410;-79
2023/07/20 00:37:32;;;;;;;4.53;2.60;;;20.90;99.90;;;;;;4989537;28;20400;-79
2023/07/20 00:39:58;;;;;;;3.92;2.70;;;20.80;99.90;;;;;;4955697;28;20392;-80
2023/07/20 00:42:24;;;;;;;2.63;2.43;;;20.80;99.90;;;;;;5020775;23;20436;-83
2023/07/20 00:44:49;;;;;;;5.20;2.70;;;20.80;99.90;;;;;;5010486;28;20399;-84
2023/07/20 00:47:15;;;;;;;4.33;2.93;;;20.80;99.90;;;;;;5011587;28;20400;-84
2023/07/20 00:49:41;;;;;;;4.10;2.92;;;20.90;99.90;;;;;;4990757;28;20456;-84
2023/07/20 00:52:07;;;;;;;3.20;2.80;;;21.00;99.90;;;;;;4978581;28;20772;-84
2023/07/20 00:54:34;;;;;;;4.03;2.72;;;20.80;99.90;;;;;;4972692;28;20473;-84
2023/07/20 00:57:01;;;;;;;4.60;2.50;;;20.70;99.90;;;;;;4977913;28;20411;-84
2023/07/20 00:59:27;;;;;;;3.75;3.00;;;20.70;99.90;;;;;;4992143;28;20445;-84
2023/07/20 01:01:52;;;;;;;4.00;2.90;;;20.70;99.90;;;;;;4991396;28;20486;-84
2023/07/20 01:04:18;;;;;;;4.60;2.83;;;20.90;99.90;;;;;;4991121;28;20466;-83
2023/07/20 01:07:02;;;;;;;4.57;2.92;;;20.90;99.90;;;;;;4991041;28;20414;-84
2023/07/20 01:09:47;;;;;;;6.65;3.20;;;20.90;99.90;;;;;;4981283;28;20408;-83
2023/07/20 01:12:22;;;;;;;5.30;3.13;;;20.90;99.90;;;;;;4973068;28;20824;-84
2023/07/20 01:14:48;;;;;;;5.70;3.00;;;20.90;99.90;;;;;;4971430;28;20392;-84
2023/07/20 01:17:14;;;;;;;4.88;2.90;;;20.80;99.90;;;;;;4972735;28;20786;-84
2023/07/20 01:19:40;;;;;;;3.00;2.73;;;20.80;99.90;;;;;;4971529;28;20400;-84
2023/07/20 01:22:27;;;;;;;3.60;2.80;;;20.90;99.90;;;;;;4971624;28;20709;-83
2023/07/20 01:25:21;;;;;;;4.07;2.90;;;20.80;99.90;;;;;;4972968;28;20855;-84
2023/07/20 01:28:23;;;;;;;4.25;2.85;;;20.70;99.90;;;;;;4964381;28;20463;-84
2023/07/20 01:30:54;;;;;;;3.45;2.83;;;20.50;99.90;;;;;;4988889;28;20422;-84
2023/07/20 01:33:21;;;;;;;4.10;2.90;;;20.50;99.90;;;;;;4989682;28;20500;-84
2023/07/20 01:35:58;;;;;;;3.10;2.90;;;20.40;99.90;;;;;;4990589;28;20425;-84
2023/07/20 01:38:24;;;;;;;3.35;2.60;;;20.20;99.90;;;;;;5004838;28;20398;-83
2023/07/20 01:40:50;;;;;;;3.70;2.95;;;20.30;99.90;;;;;;5004703;28;20457;-84
2023/07/20 01:43:16;;;;;;;5.47;2.90;;;20.30;99.90;;;;;;4991274;28;20406;-84
2023/07/20 01:45:41;;;;;;;3.92;2.72;;;20.20;99.90;;;;;;4990967;28;20478;-83
2023/07/20 01:48:07;;;;;;;5.40;2.90;;;19.80;99.90;;;;;;4992143;28;20394;-84
2023/07/20 01:50:34;;;;;;;3.40;3.10;;;20.10;99.90;;;;;;4989911;28;20394;-84
2023/07/20 01:53:00;;;;;;;2.90;2.70;;;20.10;99.90;;;;;;4989972;28;20406;-85
2023/07/20 01:55:26;;;;;;;4.80;3.10;;;20.00;99.90;;;;;;4991566;28;20383;-84
2023/07/20 01:57:51;;;;;;;4.00;3.00;;;20.60;99.90;;;;;;4990592;28;20390;-85
2023/07/20 02:00:21;;;;;;;3.40;3.03;;;20.20;99.90;;;;;;4989927;28;20846;-85
2023/07/20 02:02:46;;;;;;;3.03;2.75;;;20.00;99.90;;;;;;4978662;28;20404;-84
2023/07/20 02:05:12;;;;;;;5.57;3.30;;;20.00;99.90;;;;;;5009164;28;20562;-84
2023/07/20 02:07:37;;;;;;;3.20;2.90;;;19.90;99.90;;;;;;5008464;28;20422;-85
2023/07/20 02:10:03;;;;;;;3.60;2.95;;;20.10;99.90;;;;;;5004798;28;20414;-83
2023/07/20 02:12:29;;;;;;;3.40;2.83;;;19.70;99.90;;;;;;5000159;28;20422;-84
2023/07/20 02:14:54;;;;;;;4.10;2.90;;;19.90;99.90;;;;;;4976550;28;20408;-84
2023/07/20 02:17:20;;;;;;;11.38;3.33;;;19.70;99.90;;;;;;4971057;28;20392;-84
2023/07/20 02:19:46;;;;;;;4.30;2.77;;;19.60;99.90;;;;;;4988529;28;20390;-84
2023/07/20 02:22:12;;;;;;;3.80;3.10;;;19.70;99.90;;;;;;4990207;28;20382;-84
2023/07/20 02:24:38;;;;;;;3.33;2.80;;;19.40;99.90;;;;;;4990507;28;20426;-84
2023/07/20 02:27:04;;;;;;;3.65;2.85;;;19.50;99.90;;;;;;4989975;28;20762;-84
2023/07/20 02:29:29;;;;;;;3.03;2.50;;;19.50;99.90;;;;;;4975038;28;20408;-84
2023/07/20 02:31:55;;;;;;;3.60;2.80;;;19.50;99.90;;;;;;4971743;28;20467;-84
2023/07/20 02:34:20;;;;;;;3.63;2.83;;;19.30;99.90;;;;;;4985161;28;20413;-84
2023/07/20 02:36:46;;;;;;;4.30;3.00;;;19.30;99.90;;;;;;4990400;28;20536;-84
2023/07/20 02:39:11;;;;;;;5.18;3.00;;;19.20;99.90;;;;;;4989782;28;21123;-83
2023/07/20 02:41:37;;;;;;;4.07;2.87;;;19.30;99.90;;;;;;4990405;28;20407;-84
2023/07/20 02:44:03;;;;;;;3.30;3.10;;;19.30;99.90;;;;;;4990572;28;20413;-84
2023/07/20 02:46:30;;;;;;;2.92;2.70;;;19.20;99.90;;;;;;4992792;28;20440;-84
2023/07/20 02:48:55;;;;;;;4.32;3.30;;;19.10;99.90;;;;;;4992831;28;20402;-84
2023/07/20 02:51:21;;;;;;;4.80;2.73;;;19.10;99.90;;;;;;4991705;28;20403;-84
2023/07/20 02:53:46;;;;;;;4.70;2.90;;;19.10;99.90;;;;;;4994132;28;21305;-84
2023/07/20 02:56:12;;;;;;;3.00;2.50;;;19.10;99.90;;;;;;4993505;28;20386;-84
2023/07/20 02:58:43;;;;;;;3.90;2.72;;;19.00;99.90;;;;;;4993199;28;20430;-84
2023/07/20 03:01:09;;;;;;;4.03;2.92;;;19.50;99.90;;;;;;4991850;28;20397;-84
2023/07/20 03:03:38;;;;;;;4.10;3.10;;;18.90;99.90;;;;;;4992310;28;20530;-83
2023/07/20 03:06:04;;;;;;;3.88;2.92;;;18.80;99.90;;;;;;4992129;28;20914;-83
2023/07/20 03:08:30;;;;;;;3.80;2.80;;;18.80;99.90;;;;;;4993374;28;20491;-84
2023/07/20 03:10:55;;;;;;;2.97;2.67;;;18.90;99.90;;;;;;4991951;28;20909;-84
2023/07/20 03:13:21;;;;;;;4.30;3.10;;;18.80;99.90;;;;;;4992243;28;20423;-84
2023/07/20 03:15:47;;;;;;;5.43;3.20;;;18.70;99.90;;;;;;4992295;28;20394;-84
2023/07/20 03:18:12;;;;;;;3.63;3.22;;;18.70;99.90;;;;;;4992306;28;20393;-84
2023/07/20 03:20:39;;;;;;;3.70;3.30;;;19.40;99.90;;;;;;4992484;28;20394;-84
2023/07/20 03:23:04;;;;;;;5.20;3.42;;;18.70;99.90;;;;;;4992203;28;20410;-84
2023/07/20 03:25:30;;;;;;;5.10;3.03;;;18.60;99.90;;;;;;5005396;28;20405;-84
2023/07/20 03:27:55;;;;;;;4.27;3.10;;;18.60;99.90;;;;;;4992943;28;20394;-84
2023/07/20 03:30:21;;;;;;;4.53;2.90;;;18.50;99.90;;;;;;4994082;28;20422;-83
2023/07/20 03:32:46;;;;;;;3.80;3.30;;;18.50;99.90;;;;;;4992640;28;20546;-84
2023/07/20 03:35:12;;;;;;;6.07;3.30;;;18.60;99.90;;;;;;4993509;28;20397;-84
2023/07/20 03:37:38;;;;;;;3.10;2.80;;;18.60;99.90;;;;;;4993073;28;20390;-83
2023/07/20 03:40:04;;;;;;;3.20;2.90;;;18.60;99.90;;;;;;4991917;28;20917;-83
2023/07/20 03:42:30;;;;;;;4.80;2.80;;;18.50;99.90;;;;;;4930757;28;1750405;-84
2023/07/20 03:44:56;;;;;;;3.70;3.30;;;18.40;99.90;;;;;;4993590;28;20894;-84
2023/07/20 03:47:22;;;;;;;3.90;3.00;;;18.50;99.90;;;;;;4994288;28;20383;-84
2023/07/20 03:49:47;;;;;;;5.03;3.33;;;18.50;99.90;;;;;;4992732;28;20402;-84
2023/07/20 03:52:13;;;;;;;4.40;3.20;;;18.40;99.90;;;;;;4990631;28;20467;-84
2023/07/20 03:54:38;;;;;;;3.55;2.90;;;18.40;99.90;;;;;;4974792;28;20388;-84
2023/07/20 03:57:04;;;;;;;3.97;3.07;;;18.50;99.90;;;;;;4974127;28;20407;-84
2023/07/20 03:59:30;;;;;;;5.57;3.30;;;18.50;99.90;;;;;;4978696;28;20406;-84
2023/07/20 04:01:55;;;;;;;4.43;3.22;;;18.60;99.90;;;;;;4994412;28;20476;-83
2023/07/20 04:04:21;;;;;;;3.20;2.90;;;18.50;99.90;;;;;;4997282;28;20473;-83
2023/07/20 04:06:46;;;;;;;6.13;3.00;;;18.60;99.90;;;;;;4995015;28;20395;-83
2023/07/20 04:09:12;;;;;;;3.35;3.05;;;18.70;99.90;;;;;;4993056;28;20390;-83
2023/07/20 04:11:38;;;;;;;3.97;3.60;;;18.60;99.90;;;;;;4973222;28;20881;-84
2023/07/20 04:14:04;;;;;;;4.05;3.13;;;18.60;99.90;;;;;;4974430;28;20407;-82
2023/07/20 04:16:29;;;;;;;3.70;3.10;;;18.60;99.90;;;;;;4973416;28;20396;-84
2023/07/20 04:18:56;;;;;;;4.17;3.10;;;18.60;99.90;;;;;;4973152;28;20884;-84
2023/07/20 04:21:21;;;;;;;3.33;3.00;;;18.80;99.90;;;;;;4990873;28;20395;-84
2023/07/20 04:23:47;;;;;;;3.67;3.30;;;18.50;99.90;;;;;;4992648;28;20497;-84
2023/07/20 04:26:14;;;;;;;3.50;2.92;;;18.50;99.90;;;;;;4994239;28;20902;-85
2023/07/20 04:28:43;;;;;;;3.78;3.38;;;18.60;99.90;;;;;;4993162;28;20450;-84
2023/07/20 04:31:13;;;;;;;4.88;3.13;;;18.60;99.90;;;;;;4976210;28;20420;-84
2023/07/20 04:33:39;;;;;;;5.80;3.50;;;18.60;99.90;;;;;;4981576;28;20483;-84
2023/07/20 04:36:05;;;;;;;4.70;2.90;;;18.60;99.90;;;;;;4991724;28;20406;-83
2023/07/20 04:38:30;;;;;;;4.20;3.22;;;18.40;99.90;;;;;;4992489;28;20395;-83
2023/07/20 04:40:56;;;;;;;3.97;3.33;;;18.50;99.90;;;;;;5010788;28;20402;-82
2023/07/20 04:43:22;;;;;;;3.60;3.30;;;19.30;99.90;;;;;;5015741;28;20426;-83
2023/07/20 04:45:47;;;;;;;3.92;3.40;;;18.50;99.90;;;;;;5017192;28;20437;-83
2023/07/20 04:48:15;;;;;;;3.83;3.10;;;18.60;99.90;;;;;;4977253;28;20408;-83
2023/07/20 04:50:41;;;;;;;5.70;3.40;;;18.30;99.90;;;;;;4974023;28;20777;-83
2023/07/20 04:53:11;;;;;;;4.30;3.28;;;18.60;99.90;;;;;;4976753;28;20384;-86
2023/07/20 04:55:37;;;;;;;5.65;3.67;;;18.60;99.90;;;;;;4995129;28;20395;-87
2023/07/20 04:58:04;;;;;;;4.73;3.10;;;18.60;99.90;;;;;;4996157;28;20822;-86
2023/07/20 05:00:30;;;;;;;4.38;3.30;;;18.80;99.90;;;;;;4989763;28;20400;-86
2023/07/20 05:02:56;;;;;;;5.30;3.10;;;18.50;99.90;;;;;;5010019;28;20444;-86
2023/07/20 05:05:22;;;;;;;3.97;3.30;;;18.50;99.90;;;;;;5017673;28;20385;-86
2023/07/20 05:07:48;;;;;;;4.60;2.90;;;18.50;99.90;;;;;;5000711;28;20850;-86
2023/07/20 05:10:13;;;;;;;3.60;3.30;;;18.60;99.90;;;;;;4996816;28;20751;-86
2023/07/20 05:12:39;;;;;;;6.22;3.60;;;18.70;99.90;;;;;;4995896;28;20464;-85
2023/07/20 05:15:05;;;;;;;3.60;3.17;;;18.50;99.90;;;;;;4994396;28;20391;-86
2023/07/20 05:17:40;;;;;;;4.72;3.35;;;18.40;99.90;;;;;;4994314;28;20481;-86
2023/07/20 05:20:06;;;;;;;3.53;3.20;;;18.60;99.90;;;;;;4992894;28;20426;-86
2023/07/20 05:22:35;;;;;;;5.03;3.70;;;18.40;99.90;;;;;;4994605;28;20423;-86
2023/07/20 05:25:03;;;;;;;3.45;3.15;;;19.00;99.90;;;;;;4993537;28;20902;-87
2023/07/20 05:27:38;;;;;;;3.72;3.05;;;18.40;99.90;;;;;;4994479;28;20398;-86
2023/07/20 05:30:07;;;;;;;5.38;3.38;;;18.00;99.90;;;;;;4995755;28;20395;-86
2023/07/20 05:32:41;;;;;;;4.70;3.30;;;18.70;99.90;;;;;;4994412;28;20403;-86
2023/07/20 05:35:12;;;;;;;5.10;3.60;;;20.70;99.90;;;;;;4994553;28;20430;-86
2023/07/20 05:37:38;;;;;;;4.03;3.50;;;18.70;99.90;;;;;;4996479;28;20811;-86
2023/07/20 05:40:11;;;;;;;3.90;3.50;;;19.20;99.90;;;;;;4995281;28;20422;-86
2023/07/20 05:42:43;;;;;;;3.97;3.45;;;18.70;99.90;;;;;;4995039;28;20414;-86
2023/07/20 05:45:12;;;;;;;3.90;3.50;;;19.50;99.90;;;;;;4995286;28;20398;-87
2023/07/20 05:47:41;;;;;;;6.43;3.90;;;18.80;99.90;;;;;;5004090;28;20390;-86
2023/07/20 05:50:10;;;;;;;6.40;3.40;;;18.90;99.90;;;;;;5009422;28;20430;-86
2023/07/20 05:52:38;;;;;;;5.18;4.00;;;18.30;99.90;;;;;;5002234;28;20431;-87
2023/07/20 05:55:10;;;;;;;5.18;3.60;;;20.10;99.90;;;;;;4995913;28;21205;-86
2023/07/20 05:57:46;;;;;;;;;;;;;;;;;;;;;
2023/07/20 06:00:26;;;;;;;5.75;3.20;;;19.40;99.90;;;;;;4994471;28;20985;-86
2023/07/20 06:02:55;;;;;;;4.80;3.47;;;19.20;99.90;;;;;;4995828;28;20418;-86
2023/07/20 06:05:23;;;;;;;4.03;3.60;;;19.70;99.90;;;;;;4993965;28;20431;-86
2023/07/20 06:07:54;;;;;;;5.03;3.78;;;21.00;99.90;;;;;;4996831;28;20389;-86
2023/07/20 06:10:23;;;;;;;4.10;3.70;;;19.10;99.90;;;;;;4995310;28;20394;-86
2023/07/20 06:12:54;;;;;;;4.15;3.45;;;19.50;99.90;;;;;;4995329;28;20406;-86
2023/07/20 06:15:47;;;;;;;6.55;3.97;;;21.90;99.90;;;;;;4994606;28;20929;-86
2023/07/20 06:18:13;;;;;;;4.68;3.30;;;19.50;99.90;;;;;;4994182;28;20429;-87
2023/07/20 06:20:48;;;;;;;5.15;3.55;;;21.30;99.90;;;;;;4998142;28;20402;-86
2023/07/20 06:23:14;;;;;;;4.40;3.57;;;19.70;99.90;;;;;;4998747;28;20411;-87
2023/07/20 06:25:50;;;;;;;4.90;3.50;;;20.90;99.90;;;;;;5010038;28;20410;-86
2023/07/20 06:28:27;;;;;;;3.97;3.60;;;19.80;99.90;;;;;;4999950;28;20825;-86
2023/07/20 06:31:03;;;;;;;4.40;3.50;;;19.90;99.90;;;;;;4979255;28;20919;-86
2023/07/20 06:33:32;;;;;;;4.90;3.70;;;20.50;99.90;;;;;;4991563;28;20557;-86
2023/07/20 06:35:58;;;;;;;7.70;3.70;;;20.70;99.90;;;;;;4979972;28;20406;-86
2023/07/20 06:38:26;;;;;;;4.20;3.50;;;20.40;99.90;;;;;;4978857;28;20456;-86
2023/07/20 06:40:52;;;;;;;4.15;3.53;;;19.90;99.90;;;;;;4977572;28;20768;-86
2023/07/20 06:43:18;;;;;;;4.53;3.80;;;20.20;99.90;;;;;;4985063;23;20969;-85
2023/07/20 06:45:43;;;;;;;6.63;4.03;;;19.90;99.90;;;;;;4955395;28;20417;-85
2023/07/20 06:48:09;;;;;;;4.53;3.30;;;20.10;99.90;;;;;;4957155;28;20386;-84
2023/07/20 06:50:35;;;;;;;3.60;3.30;;;20.20;99.90;;;;;;4956496;28;20415;-85
2023/07/20 06:53:03;;;;;;;3.63;3.20;;;20.30;99.90;;;;;;4974530;28;20408;-85
2023/07/20 06:55:28;;;;;;;3.88;3.00;;;20.30;99.90;;;;;;4975405;28;20396;-86
2023/07/20 06:57:54;;;;;;;3.65;2.95;;;20.90;99.90;;;;;;4975443;28;20447;-85
2023/07/20 07:00:20;;;;;;;3.20;2.90;;;20.40;99.90;;;;;;4978233;28;20384;-85
2023/07/20 07:02:45;;;;;;;3.93;2.80;;;20.50;99.90;;;;;;4978934;28;20411;-85
2023/07/20 07:05:13;;;;;;;4.70;3.00;;;22.70;99.90;;;;;;4978645;28;20871;-85
2023/07/20 07:07:38;;;;;;;3.33;3.03;;;20.70;99.90;;;;;;4979339;28;20399;-85
2023/07/20 07:10:05;;;;;;;3.53;3.23;;;20.70;99.90;;;;;;4961306;28;20405;-85
2023/07/20 07:12:30;;;;;;;4.57;3.43;;;20.90;99.90;;;;;;4970280;28;20409;-85
2023/07/20 07:14:56;;;;;;;4.00;3.10;;;23.70;99.90;;;;;;4960902;28;20515;-86
2023/07/20 07:17:22;;;;;;;4.55;3.30;;;20.90;99.90;;;;;;4959227;28;20402;-85
2023/07/20 07:19:47;;;;;;;5.77;3.37;;;22.50;99.90;;;;;;4958891;28;20430;-85
2023/07/20 07:22:13;;;;;;;2.90;2.60;;;20.50;99.90;;;;;;4974088;28;20532;-85
2023/07/20 07:24:41;;;;;;;3.20;2.90;;;21.00;99.90;;;;;;4980311;28;20436;-86
2023/07/20 07:27:09;;;;;;;4.00;3.20;;;20.90;99.90;;;;;;4981636;28;20467;-86
2023/07/20 07:29:34;;;;;;;3.67;3.38;;;20.90;99.90;;;;;;4983154;28;20470;-85
2023/07/20 07:32:01;;;;;;;3.83;3.35;;;20.90;99.90;;;;;;4977329;28;20772;-84
2023/07/20 07:34:27;;;;;;;5.03;3.60;;;20.90;99.90;;;;;;4965721;28;20390;-82
2023/07/20 07:36:52;;;;;;;4.00;3.53;;;21.00;99.90;;;;;;4962486;28;20413;-83
2023/07/20 07:39:18;;;;;;;7.20;3.50;;;20.80;99.90;;;;;;4962787;29;20401;-85
2023/07/20 07:41:43;;;;;;;3.53;3.23;;;21.00;99.90;;;;;;4973890;28;20414;-84
2023/07/20 07:44:09;;;;;;;5.28;3.30;;;20.70;99.90;;;;;;4966108;28;20393;-84
2023/07/20 07:46:34;;;;;;;5.73;3.40;;;20.80;99.90;;;;;;4966519;28;20405;-84
2023/07/20 07:49:00;;;;;;;5.55;3.70;;;20.90;99.90;;;;;;4971664;28;20413;-83
2023/07/20 07:51:27;;;;;;;6.70;4.20;;;20.90;99.90;;;;;;4973553;28;20397;-84
2023/07/20 07:53:52;;;;;;;4.07;3.30;;;20.80;99.90;;;;;;4968176;28;20472;-84
2023/07/20 07:56:22;;;;;;;4.00;3.10;;;20.70;99.90;;;;;;4963114;28;20421;-84
2023/07/20 07:58:48;;;;;;;7.45;3.63;;;20.80;99.90;;;;;;4962336;28;20429;-86
2023/07/20 08:01:14;;;;;;;4.45;3.40;;;20.70;99.90;;;;;;4960822;28;20413;-84
2023/07/20 08:03:40;;;;;;;4.03;3.20;;;20.90;99.90;;;;;;4960182;28;20432;-84
2023/07/20 08:06:05;;;;;;;4.70;2.97;;;20.70;99.90;;;;;;4939566;29;20391;-85
2023/07/20 08:08:32;;;;;;;4.30;3.35;;;20.80;99.90;;;;;;4939648;29;20406;-84
2023/07/20 08:10:58;;;;;;;4.50;3.20;;;20.90;99.90;;;;;;4973003;28;20423;-85
2023/07/20 08:13:24;;;;;;;3.57;3.07;;;20.90;99.90;;;;;;4976964;28;20403;-86
2023/07/20 08:15:53;;;;;;;4.30;3.17;;;20.90;99.90;;;;;;4976397;28;20396;-86
2023/07/20 08:18:19;;;;;;;3.75;3.33;;;21.30;99.90;;;;;;4975298;28;20447;-85
2023/07/20 08:20:45;;;;;;;4.05;3.20;;;21.30;99.90;;;;;;4975494;28;20404;-86
2023/07/20 08:23:11;;;;;;;3.90;2.90;;;21.50;99.90;;;;;;4974099;28;20467;-85
2023/07/20 08:25:39;;;;;;;5.50;3.30;;;21.60;99.90;;;;;;4963028;28;20485;-85
2023/07/20 08:28:05;;;;;;;4.63;2.67;;;23.00;99.90;;;;;;4957347;28;20852;-85
2023/07/20 08:30:43;;;;;;;4.78;3.13;;;21.40;99.90;;;;;;4939457;29;20388;-85
2023/07/20 08:33:13;;;;;;;4.93;3.30;;;21.60;99.90;;;;;;4955758;29;20401;-85
2023/07/20 08:35:39;;;;;;;5.10;3.20;;;21.60;99.90;;;;;;4957324;28;20516;-85
2023/07/20 08:38:05;;;;;;;4.78;3.40;;;21.50;99.90;;;;;;4956226;28;20902;-84
2023/07/20 08:40:32;;;;;;;5.18;3.22;;;21.30;99.90;;;;;;4957368;28;20401;-84
2023/07/20 08:43:00;;;;;;;4.50;2.65;;;22.90;99.90;;;;;;4953907;28;20421;-84
2023/07/20 08:45:31;;;;;;;3.40;2.90;;;22.40;99.90;;;;;;4956358;28;20400;-82
2023/07/20 08:47:58;;;;;;;4.25;2.92;;;22.30;99.90;;;;;;4957167;28;20425;-85
2023/07/20 08:50:26;;;;;;;5.20;2.85;;;22.50;99.90;;;;;;4955613;28;20397;-85
2023/07/20 08:52:53;;;;;;;3.53;2.83;;;21.40;99.90;;;;;;4955521;28;20401;-84
2023/07/20 08:55:22;;;;;;;2.72;2.40;;;21.40;99.90;;;;;;4965184;28;20400;-85
2023/07/20 08:57:52;;;;;;;3.50;2.80;;;21.40;99.90;;;;;;4975021;28;20426;-84
2023/07/20 09:00:20;;;;;;;3.53;2.10;;;21.70;99.90;;;;;;4976562;28;20392;-84
2023/07/20 09:02:47;;;;;;;3.58;2.88;;;21.50;99.90;;;;;;4957983;28;20422;-84
2023/07/20 09:05:14;;;;;;;4.15;2.10;;;21.60;99.90;;;;;;4958764;28;20436;-85
2023/07/20 09:07:40;;;;;;;3.50;2.47;;;21.60;99.90;;;;;;4967934;28;20479;-86
2023/07/20 09:10:07;;;;;;;4.70;2.60;;;22.60;99.90;;;;;;4974509;28;20408;-85
2023/07/20 09:12:37;;;;;;;3.90;3.08;;;21.80;99.90;;;;;;4971146;28;20392;-85
2023/07/20 09:15:04;;;;;;;3.30;3.00;;;21.90;99.90;;;;;;4935849;29;20399;-85
2023/07/20 09:17:29;;;;;;;3.28;2.60;;;21.70;99.90;;;;;;4935660;29;20402;-85
2023/07/20 09:19:55;;;;;;;5.20;3.10;;;21.80;99.90;;;;;;4935435;29;20478;-83
2023/07/20 09:22:20;;;;;;;4.30;2.80;;;22.00;99.90;;;;;;4935799;29;20414;-86
2023/07/20 09:24:46;;;;;;;5.67;2.57;;;22.10;99.90;;;;;;4967365;28;20454;-86
2023/07/20 09:27:12;;;;;;;4.63;2.90;;;22.50;99.90;;;;;;4972776;28;20396;-84
2023/07/20 09:29:53;;;;;;;4.28;2.60;;;22.10;99.90;;;;;;4988225;28;20380;-85
2023/07/20 09:32:20;;;;;;;2.60;2.30;;;22.10;99.90;;;;;;4997011;28;20403;-86
2023/07/20 09:34:46;;;;;;;4.20;2.47;;;22.20;99.90;;;;;;4979518;28;20398;-85
2023/07/20 09:37:12;;;;;;;4.30;2.60;;;22.30;99.90;;;;;;4973069;28;20409;-86
2023/07/20 09:39:45;;;;;;;3.10;2.40;;;22.00;99.90;;;;;;4954722;29;20459;-86
2023/07/20 09:42:12;;;;;;;3.38;2.25;;;21.40;99.90;;;;;;4952055;29;20590;-85
2023/07/20 09:44:39;;;;;;;4.35;2.30;;;23.60;99.90;;;;;;4955796;28;20397;-85
2023/07/20 09:47:05;;;;;;;3.33;2.40;;;22.20;99.90;;;;;;4954693;28;20398;-84
2023/07/20 09:49:31;;;;;;;3.43;2.40;;;22.20;99.90;;;;;;4966578;28;20411;-85
2023/07/20 09:52:00;;;;;;;3.00;2.50;;;22.30;99.90;;;;;;4979287;28;20408;-85
2023/07/20 09:54:27;;;;;;;3.03;2.30;;;22.40;99.90;;;;;;4989697;28;20407;-85
2023/07/20 09:56:53;;;;;;;3.17;2.40;;;22.70;99.90;;;;;;4979215;28;20396;-85
2023/07/20 09:59:19;;;;;;;5.57;3.15;;;22.40;99.90;;;;;;4966254;28;20523;-85
2023/07/20 10:01:46;;;;;;;5.70;2.40;;;22.70;99.90;;;;;;4961626;29;20913;-82
2023/07/20 10:04:18;;;;;;;4.47;2.78;;;22.70;99.90;;;;;;4964659;29;20495;-85
2023/07/20 10:06:47;;;;;;;3.30;2.20;;;22.60;99.90;;;;;;4967216;28;20796;-84
2023/07/20 10:09:15;;;;;;;3.30;2.30;;;22.60;99.90;;;;;;4993886;28;20419;-85
2023/07/20 10:11:49;;;;;;;4.40;2.30;;;22.90;99.90;;;;;;4999949;28;20415;-86
2023/07/20 10:14:20;;;;;;;2.90;2.60;;;23.00;99.90;;;;;;4999728;28;20415;-85
2023/07/20 10:16:57;;;;;;;2.50;1.95;;;23.00;99.90;;;;;;4997368;28;20403;-84
2023/07/20 10:19:28;;;;;;;3.63;2.60;;;22.50;99.90;;;;;;4980401;28;20388;-85
2023/07/20 10:22:02;;;;;;;3.97;2.17;;;22.90;99.90;;;;;;4997518;28;20398;-85
2023/07/20 10:24:28;;;;;;;4.60;2.50;;;23.00;99.90;;;;;;5001273;28;21274;-86
2023/07/20 10:26:55;;;;;;;2.60;2.00;;;23.40;99.90;;;;;;4996489;28;20500;-85
2023/07/20 10:29:22;;;;;;;3.45;2.50;;;23.20;99.90;;;;;;4968537;28;20426;-85
2023/07/20 10:31:49;;;;;;;3.85;2.20;;;23.10;99.90;;;;;;4949411;28;20464;-83
2023/07/20 10:34:15;;;;;;;2.63;1.83;;;23.40;99.90;;;;;;4953559;28;20834;-81
2023/07/20 10:36:50;;;;;;;2.60;2.13;;;23.50;99.90;;;;;;4951181;28;20406;-83
2023/07/20 10:39:27;;;;;;;2.92;2.03;;;23.80;99.90;;;;;;4955541;29;20465;-82
2023/07/20 10:42:09;;;;;;;3.77;2.10;;;23.30;99.90;;;;;;4953487;28;20433;-83
2023/07/20 10:44:37;;;;;;;2.70;1.88;;;23.30;99.90;;;;;;4954129;29;20390;-83
2023/07/20 10:47:09;;;;;;;2.20;2.00;;;23.40;99.90;;;;;;4954736;29;20386;-82
2023/07/20 10:49:35;;;;;;;3.80;1.90;;;23.60;99.90;;;;;;4953589;29;20408;-83
2023/07/20 10:52:05;;;;;;;3.10;2.10;;;23.90;99.90;;;;;;4954581;28;21079;-82
2023/07/20 10:54:30;;;;;;;2.30;2.10;;;23.80;99.90;;;;;;4955016;29;20390;-84
2023/07/20 10:57:23;;;;;;;2.90;2.10;;;24.10;99.90;;;;;;4957043;28;20935;-84
2023/07/20 10:59:49;;;;;;;2.45;2.00;;;23.80;99.90;;;;;;4957147;29;20410;-85
2023/07/20 11:02:18;;;;;;;3.57;2.07;;;23.90;99.90;;;;;;4963381;28;20484;-85
2023/07/20 11:04:45;;;;;;;3.10;2.00;;;24.30;99.90;;;;;;4960400;28;20429;-83
2023/07/20 11:07:16;;;;;;;4.15;2.00;;;24.10;99.90;;;;;;4959832;29;20402;-85
2023/07/20 11:09:42;;;;;;;4.93;2.05;;;24.00;99.90;;;;;;4957764;29;20460;-83
2023/07/20 11:12:13;;;;;;;2.20;1.90;;;23.90;99.90;;;;;;4954029;28;20869;-82
2023/07/20 11:14:44;;;;;;;2.67;2.10;;;23.80;99.90;;;;;;4958036;28;20409;-84
2023/07/20 11:17:20;;;;;;;3.70;2.40;;;23.90;99.90;;;;;;4961405;28;20417;-84
2023/07/20 11:19:48;;;;;;;3.50;2.20;;;23.40;99.90;;;;;;4960355;28;20410;-83
2023/07/20 11:22:17;;;;;;;2.30;1.80;;;23.80;99.90;;;;;;4974031;28;20438;-85
2023/07/20 11:24:42;;;;;;;2.95;2.30;;;24.70;99.90;;;;;;4966042;28;20423;-84
2023/07/20 11:27:08;;;;;;;3.40;2.33;;;25.00;99.90;;;;;;4964431;28;20391;-84
2023/07/20 11:29:35;;;;;;;4.70;2.70;;;25.40;99.90;;;;;;4960965;29;20421;-84
2023/07/20 11:32:02;;;;;;;3.13;2.53;;;25.50;99.90;;;;;;4962129;28;20409;-83
2023/07/20 11:34:31;;;;;;;2.50;2.30;;;25.20;99.90;;;;;;4962268;28;20390;-83
2023/07/20 11:36:56;;;;;;;2.80;1.90;;;24.60;99.90;;;;;;4960557;28;20901;-83
2023/07/20 11:39:25;;;;;;;2.50;2.20;;;24.40;99.90;;;;;;4962367;29;20394;-84
2023/07/20 11:41:56;;;;;;;3.58;2.22;;;24.50;99.90;;;;;;4960321;28;20410;-84
2023/07/20 11:44:26;;;;;;;4.93;2.10;;;25.30;99.90;;;;;;4959195;28;20456;-85
2023/07/20 11:47:03;;;;;;;3.40;2.20;;;25.50;99.90;;;;;;4957574;29;20393;-83
2023/07/20 11:49:29;;;;;;;3.75;2.20;;;25.50;99.90;;;;;;4958622;29;20388;-82
2023/07/20 11:51:56;;;;;;;2.20;2.00;;;26.90;99.90;;;;;;4951728;29;20401;-85
2023/07/20 11:54:22;;;;;;;3.85;2.08;;;27.20;99.90;;;;;;4956726;28;20394;-82
2023/07/20 11:56:48;;;;;;;2.60;2.17;;;27.40;99.90;;;;;;4960760;28;20394;-84
2023/07/20 11:59:13;;;;;;;2.80;2.50;;;27.50;99.90;;;;;;4954566;29;20413;-85
2023/07/20 12:01:39;;;;;;;5.40;2.17;;;27.30;99.90;;;;;;4952931;28;20461;-84
2023/07/20 12:04:06;;;;;;;4.00;2.20;;;27.60;99.90;;;;;;4961551;28;20405;-85
2023/07/20 12:06:32;;;;;;;2.20;2.00;;;27.10;99.90;;;;;;4959098;29;20493;-84
2023/07/20 12:08:58;;;;;;;2.70;2.30;;;27.60;99.90;;;;;;4955099;28;20423;-85
2023/07/20 12:11:50;;;;;;;2.80;2.00;;;27.30;99.90;;;;;;4953491;29;20445;-83
2023/07/20 12:14:17;;;;;;;3.55;2.40;;;28.30;99.90;;;;;;4945734;28;20770;-83
2023/07/20 12:16:42;;;;;;;3.67;1.98;;;27.60;99.90;;;;;;4949279;28;20411;-83
2023/07/20 12:19:10;;;;;;;3.20;1.90;;;26.90;99.90;;;;;;4955119;29;20899;-84
2023/07/20 12:21:37;;;;;;;3.70;2.25;;;27.10;99.90;;;;;;4958955;28;20413;-84
2023/07/20 12:24:03;;;;;;;2.47;1.88;;;27.20;99.90;;;;;;4956030;28;20441;-84
2023/07/20 12:26:31;;;;;;;2.70;2.15;;;26.90;99.90;;;;;;4958964;28;20408;-84
2023/07/20 12:28:57;;;;;;;2.75;2.47;;;27.40;99.90;;;;;;4954961;29;20544;-84
2023/07/20 12:31:24;;;;;;;2.60;2.00;;;27.20;99.90;;;;;;4956114;29;20909;-84
2023/07/20 12:33:50;;;;;;;2.78;1.90;;;27.00;99.90;;;;;;4954883;29;20405;-84
2023/07/20 12:36:16;;;;;;;3.05;1.95;;;27.10;99.90;;;;;;4954228;29;20404;-84
2023/07/20 12:38:41;;;;;;;3.80;2.33;;;27.60;99.90;;;;;;4956259;28;20468;-84
2023/07/20 12:41:09;;;;;;;2.20;1.88;;;28.20;99.90;;;;;;4954325;29;20402;-84
2023/07/20 12:43:35;;;;;;;3.85;2.20;;;28.30;99.90;;;;;;4950924;29;20441;-84
2023/07/20 12:46:01;;;;;;;4.18;2.10;;;27.30;99.90;;;;;;4953697;29;20401;-83
2023/07/20 12:48:26;;;;;;;3.40;2.20;;;26.80;99.90;;;;;;4957019;29;20382;-84
2023/07/20 12:50:52;;;;;;;2.20;2.00;;;27.80;99.90;;;;;;5008771;23;20414;-79